Abis Cuxhaven — PBYB — position and weather

sailwx.info

Track history (hours):
 
Tides and Currents Weather Stations Pressure Air Temp Water Temp Dewpoint Dewpoint Depression Visibility Wind Speed Wind Dir Waves Ship Positions

Abis Cuxhaven

Last reported at 2014-Dec-19 11:33 UTC. Time now 2014-Dec-19 12:11 UTC.
Position N 53°30' E 006°48'.

Length 114 m; draft 3.9 m.

Type: Cargo ship. MMSI: 246670000.

Date/timePositionNaut miles runAvg speedWind from/ knotsBaromVisibWave heightAir tempDewpointWater temp
2014-Dec-19 11:33N 53°30' E 006°48'3 3.0
2014-Dec-19 10:32N 53°27' E 006°49'0 0.0
2014-Dec-19 09:32N 53°27' E 006°49'0 0.0
2014-Dec-19 08:32N 53°27' E 006°49'0 0.0
2014-Dec-19 07:32N 53°27' E 006°49'0 0.0
2014-Dec-19 06:32N 53°27' E 006°49'0 0.0
2014-Dec-19 05:32N 53°27' E 006°49'0 0.0
2014-Dec-19 04:32N 53°27' E 006°49'0 0.0
2014-Dec-19 03:32N 53°27' E 006°49'0 0.0
2014-Dec-19 02:32N 53°27' E 006°49'0 0.0
2014-Dec-19 01:32N 53°27' E 006°49'0 0.0
2014-Dec-19 00:32N 53°27' E 006°49'0 0.0
2014-Dec-18 23:32N 53°27' E 006°49'0 0.0
2014-Dec-18 22:32N 53°27' E 006°49'0 0.0
2014-Dec-18 21:32N 53°27' E 006°49'0 0.0
2014-Dec-18 20:32N 53°27' E 006°49'0 0.0
2014-Dec-18 19:32N 53°27' E 006°49'0 0.0
2014-Dec-18 18:32N 53°27' E 006°49'0 0.0
2014-Dec-18 17:32N 53°27' E 006°49'0 0.0
2014-Dec-18 16:32N 53°27' E 006°49'0 0.0
2014-Dec-18 15:32N 53°27' E 006°49'0 0.1
2014-Dec-18 14:33N 53°27' E 006°49'6 5.8
2014-Dec-18 13:33N 53°32' E 006°44'9 9.2
2014-Dec-18 12:33N 53°37' E 006°31'8 7.4
2014-Dec-18 11:27N 53°42' E 006°19'36 9.1
2014-Dec-18 07:27N 54°18' E 006°15'22210.2
2014-Dec-17 09:33N 58°00' E 006°15'17 0.6
2014-Dec-16 07:33N 58°17' E 006°13'1 0.7
2014-Dec-16 06:33N 58°16' E 006°13'2 1.6
2014-Dec-16 05:33N 58°15' E 006°11'1 1.0
2014-Dec-16 04:33N 58°14' E 006°11'1 0.8
2014-Dec-16 03:32N 58°13' E 006°12'2 2.1
2014-Dec-16 02:33N 58°12' E 006°14'5 4.5
2014-Dec-16 01:22N 58°06' E 006°14'6 6.4
2014-Dec-16 00:26N 58°00' E 006°14'168 7.3
2014-Dec-15 01:27N 55°13' E 006°16'95 9.3
2014-Dec-14 15:19N 53°38' E 006°25'7 8.6
2014-Dec-14 14:33N 53°36' E 006°36'1111.0
2014-Dec-14 13:33N 53°29' E 006°50'2 1.5
2014-Dec-14 12:32N 53°27' E 006°49'0 0.0
2014-Dec-14 11:32N 53°27' E 006°49'0 0.0
2014-Dec-14 10:32N 53°27' E 006°49'0 0.0
2014-Dec-14 09:32N 53°27' E 006°49'0 0.0
2014-Dec-14 08:32N 53°27' E 006°49'0 0.0
2014-Dec-14 07:32N 53°27' E 006°49'0 0.0
2014-Dec-14 06:32N 53°27' E 006°49'0 0.0
2014-Dec-14 05:32N 53°27' E 006°49'0 0.0
2014-Dec-14 04:32N 53°27' E 006°49'0 0.0
2014-Dec-14 03:32N 53°27' E 006°49'0 0.0
2014-Dec-14 02:32N 53°27' E 006°49'0 0.0
2014-Dec-14 01:32N 53°27' E 006°49'0 0.0
2014-Dec-14 00:32N 53°27' E 006°49'0 0.0
2014-Dec-13 23:32N 53°27' E 006°49'0 0.0
2014-Dec-13 22:32N 53°27' E 006°49'0 0.0
2014-Dec-13 21:32N 53°27' E 006°49'0 0.0
2014-Dec-13 20:32N 53°27' E 006°49'0 0.0
2014-Dec-13 19:32N 53°27' E 006°49'0 0.0
2014-Dec-13 18:32N 53°27' E 006°49'0 0.0
2014-Dec-13 17:32N 53°27' E 006°49'0 0.0
2014-Dec-13 16:32N 53°27' E 006°49'0 0.0
2014-Dec-13 15:32N 53°27' E 006°49'0 0.0
2014-Dec-13 14:32N 53°27' E 006°49'0 0.0
2014-Dec-13 13:32N 53°27' E 006°49'0 0.0
2014-Dec-13 12:32N 53°27' E 006°49'0 0.0
2014-Dec-13 11:32N 53°27' E 006°49'0 0.0
2014-Dec-13 10:32N 53°27' E 006°49'0 0.0
2014-Dec-13 09:32N 53°27' E 006°49'0 0.0
2014-Dec-13 08:32N 53°27' E 006°49'0 0.0
2014-Dec-13 07:32N 53°27' E 006°49'0 0.0
2014-Dec-13 06:32N 53°27' E 006°49'0 0.0
2014-Dec-13 05:32N 53°27' E 006°49'0 0.0
2014-Dec-13 04:32N 53°27' E 006°49'0 0.0
2014-Dec-13 03:32N 53°27' E 006°49'0 0.0
2014-Dec-13 02:32N 53°27' E 006°49'0 0.0
2014-Dec-13 01:32N 53°27' E 006°49'0 0.0
2014-Dec-13 00:32N 53°27' E 006°49'0 0.0
2014-Dec-12 23:33N 53°27' E 006°49'6 6.3
2014-Dec-12 22:33N 53°32' E 006°43'1311.9
2014-Dec-12 21:26N 53°37' E 006°22'86 8.6
2014-Dec-12 11:20N 55°03' E 006°33'7 8.5
2014-Dec-12 10:33N 55°10' E 006°35'9 8.8
2014-Dec-12 09:29N 55°19' E 006°40'7 8.0
2014-Dec-12 08:33N 55°26' E 006°44'8 7.9
2014-Dec-12 07:33N 55°33' E 006°49'13 6.7
2014-Dec-12 05:32N 55°45' E 006°60'58 5.8
2014-Dec-11 19:28N 56°39' E 007°39'5 5.8
2014-Dec-11 18:32N 56°45' E 007°41'6 5.7
2014-Dec-11 17:33N 56°50' E 007°44'44 4.9
2014-Dec-11 08:28N 57°27' E 008°29'4 3.7
2014-Dec-11 07:18N 57°29' E 008°36'83 1.9
2014-Dec-09 12:14N 58°03' E 006°14'  
Track history (hours):
 
Tides and Currents Weather Stations Pressure Air Temp Water Temp Dewpoint Dewpoint Depression Visibility Wind Speed Wind Dir Waves Ship Positions

Abis Cuxhaven

Last reported at 2014-Dec-19 11:33 UTC. Time now 2014-Dec-19 12:11 UTC.
Position N 53°30' E 006°48'.

Length 114 m; draft 3.9 m.

Type: Cargo ship. MMSI: 246670000.

Date/timePositionNaut miles runAvg speedWind from/ knotsBaromVisibWave heightAir tempDewpointWater temp
2014-Dec-19 11:33N 53°30' E 006°48'3 3.0
2014-Dec-19 10:32N 53°27' E 006°49'0 0.0
2014-Dec-19 09:32N 53°27' E 006°49'0 0.0
2014-Dec-19 08:32N 53°27' E 006°49'0 0.0
2014-Dec-19 07:32N 53°27' E 006°49'0 0.0
2014-Dec-19 06:32N 53°27' E 006°49'0 0.0
2014-Dec-19 05:32N 53°27' E 006°49'0 0.0
2014-Dec-19 04:32N 53°27' E 006°49'0 0.0
2014-Dec-19 03:32N 53°27' E 006°49'0 0.0
2014-Dec-19 02:32N 53°27' E 006°49'0 0.0
2014-Dec-19 01:32N 53°27' E 006°49'0 0.0
2014-Dec-19 00:32N 53°27' E 006°49'0 0.0
2014-Dec-18 23:32N 53°27' E 006°49'0 0.0
2014-Dec-18 22:32N 53°27' E 006°49'0 0.0
2014-Dec-18 21:32N 53°27' E 006°49'0 0.0
2014-Dec-18 20:32N 53°27' E 006°49'0 0.0
2014-Dec-18 19:32N 53°27' E 006°49'0 0.0
2014-Dec-18 18:32N 53°27' E 006°49'0 0.0
2014-Dec-18 17:32N 53°27' E 006°49'0 0.0
2014-Dec-18 16:32N 53°27' E 006°49'0 0.0
2014-Dec-18 15:32N 53°27' E 006°49'0 0.1
2014-Dec-18 14:33N 53°27' E 006°49'6 5.8
2014-Dec-18 13:33N 53°32' E 006°44'9 9.2
2014-Dec-18 12:33N 53°37' E 006°31'8 7.4
2014-Dec-18 11:27N 53°42' E 006°19'36 9.1
2014-Dec-18 07:27N 54°18' E 006°15'22210.2
2014-Dec-17 09:33N 58°00' E 006°15'17 0.6
2014-Dec-16 07:33N 58°17' E 006°13'1 0.7
2014-Dec-16 06:33N 58°16' E 006°13'2 1.6
2014-Dec-16 05:33N 58°15' E 006°11'1 1.0
2014-Dec-16 04:33N 58°14' E 006°11'1 0.8
2014-Dec-16 03:32N 58°13' E 006°12'2 2.1
2014-Dec-16 02:33N 58°12' E 006°14'5 4.5
2014-Dec-16 01:22N 58°06' E 006°14'6 6.4
2014-Dec-16 00:26N 58°00' E 006°14'168 7.3
2014-Dec-15 01:27N 55°13' E 006°16'95 9.3
2014-Dec-14 15:19N 53°38' E 006°25'7 8.6
2014-Dec-14 14:33N 53°36' E 006°36'1111.0
2014-Dec-14 13:33N 53°29' E 006°50'2 1.5
2014-Dec-14 12:32N 53°27' E 006°49'0 0.0
2014-Dec-14 11:32N 53°27' E 006°49'0 0.0
2014-Dec-14 10:32N 53°27' E 006°49'0 0.0
2014-Dec-14 09:32N 53°27' E 006°49'0 0.0
2014-Dec-14 08:32N 53°27' E 006°49'0 0.0
2014-Dec-14 07:32N 53°27' E 006°49'0 0.0
2014-Dec-14 06:32N 53°27' E 006°49'0 0.0
2014-Dec-14 05:32N 53°27' E 006°49'0 0.0
2014-Dec-14 04:32N 53°27' E 006°49'0 0.0
2014-Dec-14 03:32N 53°27' E 006°49'0 0.0
2014-Dec-14 02:32N 53°27' E 006°49'0 0.0
2014-Dec-14 01:32N 53°27' E 006°49'0 0.0
2014-Dec-14 00:32N 53°27' E 006°49'0 0.0
2014-Dec-13 23:32N 53°27' E 006°49'0 0.0
2014-Dec-13 22:32N 53°27' E 006°49'0 0.0
2014-Dec-13 21:32N 53°27' E 006°49'0 0.0
2014-Dec-13 20:32N 53°27' E 006°49'0 0.0
2014-Dec-13 19:32N 53°27' E 006°49'0 0.0
2014-Dec-13 18:32N 53°27' E 006°49'0 0.0
2014-Dec-13 17:32N 53°27' E 006°49'0 0.0
2014-Dec-13 16:32N 53°27' E 006°49'0 0.0
2014-Dec-13 15:32N 53°27' E 006°49'0 0.0
2014-Dec-13 14:32N 53°27' E 006°49'0 0.0
2014-Dec-13 13:32N 53°27' E 006°49'0 0.0
2014-Dec-13 12:32N 53°27' E 006°49'0 0.0
2014-Dec-13 11:32N 53°27' E 006°49'0 0.0
2014-Dec-13 10:32N 53°27' E 006°49'0 0.0
2014-Dec-13 09:32N 53°27' E 006°49'0 0.0
2014-Dec-13 08:32N 53°27' E 006°49'0 0.0
2014-Dec-13 07:32N 53°27' E 006°49'0 0.0
2014-Dec-13 06:32N 53°27' E 006°49'0 0.0
2014-Dec-13 05:32N 53°27' E 006°49'0 0.0
2014-Dec-13 04:32N 53°27' E 006°49'0 0.0
2014-Dec-13 03:32N 53°27' E 006°49'0 0.0
2014-Dec-13 02:32N 53°27' E 006°49'0 0.0
2014-Dec-13 01:32N 53°27' E 006°49'0 0.0
2014-Dec-13 00:32N 53°27' E 006°49'0 0.0
2014-Dec-12 23:33N 53°27' E 006°49'6 6.3
2014-Dec-12 22:33N 53°32' E 006°43'1311.9
2014-Dec-12 21:26N 53°37' E 006°22'86 8.6
2014-Dec-12 11:20N 55°03' E 006°33'7 8.5
2014-Dec-12 10:33N 55°10' E 006°35'9 8.8
2014-Dec-12 09:29N 55°19' E 006°40'7 8.0
2014-Dec-12 08:33N 55°26' E 006°44'8 7.9
2014-Dec-12 07:33N 55°33' E 006°49'13 6.7
2014-Dec-12 05:32N 55°45' E 006°60'58 5.8
2014-Dec-11 19:28N 56°39' E 007°39'5 5.8
2014-Dec-11 18:32N 56°45' E 007°41'6 5.7
2014-Dec-11 17:33N 56°50' E 007°44'44 4.9
2014-Dec-11 08:28N 57°27' E 008°29'4 3.7
2014-Dec-11 07:18N 57°29' E 008°36'83 1.9
2014-Dec-09 12:14N 58°03' E 006°14'  

Dump ship's entire track history